Flugplatz Dierdorf-Wienau

Für EDRW sind keine METAR/TAF Berichte vorhanden.
Es werden die Flugwettermeldungen vom Flugplatz Siegerland in 34 km Entfernung angezeigt.

Bericht für EDGS

vom 23.08. um 13:20 UTC

Wind 5 kt aus 120°

Sichtweite 10 km oder mehr

gute Sicht, keine Wolken < 5000 ft, keine CB, keine Wettererscheinungen (CAVOK)

Temperatur 23.0°C

Taupunkt 8.0°C

Luftfeuchtigkeit 38%

Luftdruck 1026 hPa

EDGS 231320Z 12005KT CAVOK 23/08 Q1026

Prognose für EDGS

vom 23.08. um 00:00 UTC

Zwischen 00:00 UTC und 00:00 UTC

Wind 6 kt aus 90°

Sichtweite 10 km oder mehr

keine signifikanten Wettererscheinungen

keine Wolken

TAF EDGS 231100Z 2312/2321 09006KT CAVOK
Impressum